createdAt,value
2018-02-10T00:01:41.007Z,0.60
2018-02-10T00:04:09.381Z,0.60
2018-02-10T00:06:36.868Z,0.60
2018-02-10T00:09:04.385Z,0.60
2018-02-10T00:11:32.631Z,0.60
2018-02-10T00:14:00.131Z,0.60
2018-02-10T00:16:28.394Z,0.70
2018-02-10T00:18:56.638Z,0.70
2018-02-10T00:21:24.130Z,0.70
2018-02-10T00:23:52.390Z,0.70
2018-02-10T00:26:20.666Z,0.70
2018-02-10T00:28:48.995Z,0.70
2018-02-10T00:31:16.522Z,0.70
2018-02-10T00:33:44.770Z,0.60
2018-02-10T00:36:12.351Z,0.60
2018-02-10T00:38:40.086Z,0.60
2018-02-10T00:41:07.558Z,0.50
2018-02-10T00:43:35.809Z,0.50
2018-02-10T00:46:03.304Z,0.50
2018-02-10T00:48:30.789Z,0.60
2018-02-10T00:50:58.266Z,0.50
2018-02-10T00:53:25.758Z,0.50
2018-02-10T00:55:53.247Z,0.50
2018-02-10T00:58:21.515Z,0.50
2018-02-10T01:00:48.999Z,0.50
2018-02-10T01:03:16.545Z,0.50
2018-02-10T01:05:44.789Z,0.50
2018-02-10T01:08:12.279Z,0.50
2018-02-10T01:10:40.521Z,0.50
2018-02-10T01:13:07.999Z,0.50
2018-02-10T01:15:35.573Z,0.60
2018-02-10T01:18:03.847Z,0.60
2018-02-10T01:20:32.094Z,0.60
2018-02-10T01:22:59.594Z,0.60
2018-02-10T01:25:27.067Z,0.60
2018-02-10T01:27:54.848Z,0.60
2018-02-10T01:30:22.370Z,0.60
2018-02-10T01:32:50.616Z,0.50
2018-02-10T01:35:18.918Z,0.50
2018-02-10T01:37:47.170Z,0.50
2018-02-10T01:40:16.428Z,0.50
2018-02-10T01:42:44.186Z,0.50
2018-02-10T01:45:12.060Z,0.50
2018-02-10T01:47:39.739Z,0.50
2018-02-10T01:50:19.276Z,0.50
2018-02-10T01:52:46.915Z,0.40
2018-02-10T01:55:14.583Z,0.50
2018-02-10T01:57:42.163Z,0.50
2018-02-10T02:00:10.648Z,0.50
2018-02-10T02:02:38.284Z,0.50
2018-02-10T02:05:05.881Z,0.50
2018-02-10T02:07:33.711Z,0.50
2018-02-10T02:10:01.475Z,0.50
2018-02-10T02:12:29.342Z,0.60
2018-02-10T02:14:56.987Z,0.50
2018-02-10T02:17:25.255Z,0.50
2018-02-10T02:19:53.692Z,0.50
2018-02-10T02:22:21.430Z,0.50
2018-02-10T02:24:49.114Z,0.50
2018-02-10T02:27:16.772Z,0.50
2018-02-10T02:29:44.378Z,0.50
2018-02-10T02:32:12.894Z,0.50
2018-02-10T02:34:40.702Z,0.50
2018-02-10T02:37:09.246Z,0.50
2018-02-10T02:39:36.888Z,0.50
2018-02-10T02:42:04.670Z,0.50
2018-02-10T02:44:32.434Z,0.50
2018-02-10T02:47:00.121Z,0.50
2018-02-10T02:49:27.792Z,0.50
2018-02-10T02:51:55.408Z,0.50
2018-02-10T02:54:23.123Z,0.50
2018-02-10T02:56:51.531Z,0.50
2018-02-10T02:59:19.263Z,0.50
2018-02-10T03:01:48.021Z,0.50
2018-02-10T03:04:15.800Z,0.50
2018-02-10T03:06:43.468Z,0.50
2018-02-10T03:09:10.980Z,0.50
2018-02-10T03:11:39.587Z,0.50
2018-02-10T03:14:07.206Z,0.50
2018-02-10T03:16:35.730Z,0.50
2018-02-10T03:19:03.493Z,0.50
2018-02-10T03:21:31.258Z,0.50
2018-02-10T03:23:59.406Z,0.50
2018-02-10T03:26:27.914Z,0.40
2018-02-10T03:28:55.558Z,0.40
2018-02-10T03:31:23.065Z,0.40
2018-02-10T03:33:50.549Z,0.40
2018-02-10T03:36:18.795Z,0.40
2018-02-10T03:38:46.291Z,0.40
2018-02-10T03:41:13.859Z,0.40
2018-02-10T03:43:42.137Z,0.40
2018-02-10T03:46:10.383Z,0.40
2018-02-10T03:48:37.971Z,0.40
2018-02-10T03:51:06.213Z,0.40
2018-02-10T03:53:33.941Z,0.40
2018-02-10T03:56:01.435Z,0.40
2018-02-10T03:58:28.911Z,0.50
2018-02-10T04:00:56.382Z,0.40
2018-02-10T04:03:24.646Z,0.40
2018-02-10T04:05:52.212Z,0.30
2018-02-10T04:08:21.108Z,0.40
2018-02-10T04:10:48.770Z,0.30
2018-02-10T04:13:17.022Z,0.30
2018-02-10T04:15:44.508Z,0.30
2018-02-10T04:18:12.779Z,0.40
2018-02-10T04:20:40.259Z,0.30
2018-02-10T04:23:07.742Z,0.30
2018-02-10T04:25:35.234Z,0.40
2018-02-10T04:28:02.715Z,0.40
2018-02-10T04:30:30.968Z,0.40
2018-02-10T04:32:58.558Z,0.40
2018-02-10T04:35:26.826Z,0.40
2018-02-10T04:37:55.111Z,0.30
2018-02-10T04:40:23.381Z,0.30
2018-02-10T04:42:51.641Z,0.30
2018-02-10T04:45:19.118Z,0.30
2018-02-10T04:47:47.386Z,0.30
2018-02-10T04:50:14.947Z,0.30
2018-02-10T04:52:43.230Z,0.30
2018-02-10T04:55:11.495Z,0.20
2018-02-10T04:57:38.975Z,0.20
2018-02-10T05:00:07.213Z,0.30
2018-02-10T05:02:34.706Z,0.30
2018-02-10T05:05:02.954Z,0.30
2018-02-10T05:07:30.435Z,0.30
2018-02-10T05:09:58.690Z,0.40
2018-02-10T05:12:26.263Z,0.40
2018-02-10T05:14:53.742Z,0.40
2018-02-10T05:17:21.235Z,0.40
2018-02-10T05:19:48.772Z,0.40
2018-02-10T05:22:16.303Z,0.40
2018-02-10T05:24:44.556Z,0.30
2018-02-10T05:27:12.039Z,0.30
2018-02-10T05:29:40.282Z,0.30
2018-02-10T05:32:07.770Z,0.30
2018-02-10T05:34:36.014Z,0.30
2018-02-10T05:37:03.505Z,0.30
2018-02-10T05:39:31.770Z,0.30
2018-02-10T05:41:59.344Z,0.30
2018-02-10T05:44:27.635Z,0.30
2018-02-10T05:46:55.086Z,0.30
2018-02-10T05:49:23.330Z,0.30
2018-02-10T05:51:50.804Z,0.30
2018-02-10T05:54:18.296Z,0.20
2018-02-10T05:56:45.830Z,0.30
2018-02-10T05:59:14.116Z,0.30
2018-02-10T06:01:42.386Z,0.30
2018-02-10T06:04:10.630Z,0.30
2018-02-10T06:06:39.624Z,0.30
2018-02-10T06:09:07.101Z,0.30
2018-02-10T06:11:35.359Z,0.20
2018-02-10T06:14:02.831Z,0.20
2018-02-10T06:16:31.317Z,0.20
2018-02-10T06:18:58.793Z,0.20
2018-02-10T06:21:27.047Z,0.20
2018-02-10T06:23:55.335Z,0.20
2018-02-10T06:26:23.609Z,0.20
2018-02-10T06:28:51.863Z,0.20
2018-02-10T06:31:19.343Z,0.10
2018-02-10T06:33:47.602Z,0.20
2018-02-10T06:36:15.187Z,0.10
2018-02-10T06:38:43.451Z,0.20
2018-02-10T06:41:10.928Z,0.20
2018-02-10T06:43:39.174Z,0.20
2018-02-10T06:46:07.513Z,0.10
2018-02-10T06:48:35.030Z,0.10
2018-02-10T06:51:03.310Z,0.10
2018-02-10T06:53:31.582Z,0.10
2018-02-10T06:55:59.836Z,0.20
2018-02-10T06:58:27.326Z,0.20
2018-02-10T07:00:55.590Z,0.40
2018-02-10T07:03:24.114Z,0.50
2018-02-10T07:05:51.600Z,0.50
2018-02-10T07:08:19.097Z,0.60
2018-02-10T07:10:47.342Z,0.70
2018-02-10T07:13:14.923Z,0.80
2018-02-10T07:15:43.187Z,0.80
2018-02-10T07:18:10.661Z,0.80
2018-02-10T07:20:38.915Z,0.90
2018-02-10T07:23:06.397Z,0.90
2018-02-10T07:25:34.669Z,1.00
2018-02-10T07:28:02.923Z,1.10
2018-02-10T07:30:30.407Z,1.10
2018-02-10T07:32:58.681Z,1.40
2018-02-10T07:35:26.936Z,1.50
2018-02-10T07:37:54.426Z,1.50
2018-02-10T07:40:22.670Z,1.40
2018-02-10T07:42:50.254Z,1.30
2018-02-10T07:45:18.564Z,1.30
2018-02-10T07:47:46.051Z,1.30
2018-02-10T07:50:13.526Z,1.30
2018-02-10T07:52:41.016Z,1.40
2018-02-10T07:55:09.270Z,1.50
2018-02-10T07:57:36.752Z,1.50
2018-02-10T08:00:04.294Z,1.60
2018-02-10T08:02:31.870Z,1.70
2018-02-10T08:05:00.129Z,1.70
2018-02-10T08:07:27.731Z,1.70
2018-02-10T08:09:55.207Z,1.70
2018-02-10T08:12:22.681Z,1.80
2018-02-10T08:14:50.241Z,1.90
2018-02-10T08:17:17.837Z,1.90
2018-02-10T08:19:46.082Z,2.10
2018-02-10T08:22:13.673Z,2.10
2018-02-10T08:24:41.913Z,2.30
2018-02-10T08:27:09.413Z,2.20
2018-02-10T08:29:37.667Z,2.40
2018-02-10T08:32:05.922Z,2.50
2018-02-10T08:34:33.415Z,2.50
2018-02-10T08:37:01.698Z,2.50
2018-02-10T08:39:29.938Z,2.50
2018-02-10T08:41:57.420Z,2.50
2018-02-10T08:44:25.682Z,2.70
2018-02-10T08:46:53.160Z,2.70
2018-02-10T08:49:21.494Z,2.90
2018-02-10T08:51:48.990Z,2.90
2018-02-10T08:54:16.462Z,2.80
2018-02-10T08:56:44.706Z,2.80
2018-02-10T08:59:12.189Z,2.80
2018-02-10T09:01:40.433Z,2.90
2018-02-10T09:04:07.919Z,2.90
2018-02-10T09:06:36.185Z,2.80
2018-02-10T09:09:03.775Z,2.80
2018-02-10T09:11:32.015Z,3.00
2018-02-10T09:13:59.511Z,3.00
2018-02-10T09:16:27.005Z,2.90
2018-02-10T09:18:54.514Z,2.80
2018-02-10T09:21:22.772Z,2.60
2018-02-10T09:23:50.265Z,2.60
2018-02-10T09:26:17.739Z,2.60
2018-02-10T09:28:45.234Z,2.60
2018-02-10T09:31:12.711Z,2.60
2018-02-10T09:33:40.198Z,2.50
2018-02-10T09:36:07.690Z,2.60
2018-02-10T09:38:35.173Z,2.70
2018-02-10T09:41:03.424Z,2.70
2018-02-10T09:43:30.934Z,2.70
2018-02-10T09:45:59.175Z,2.70
2018-02-10T09:48:26.654Z,2.70
2018-02-10T09:50:54.141Z,2.80
2018-02-10T10:06:45.925Z,3.10
2018-02-10T10:09:13.421Z,3.10
2018-02-10T10:11:40.895Z,3.30
2018-02-10T10:14:08.383Z,3.30
2018-02-10T10:16:35.879Z,3.40
2018-02-10T10:19:04.251Z,3.50
2018-02-10T10:21:32.513Z,3.70
2018-02-10T10:24:00.089Z,3.70
2018-02-10T10:26:28.343Z,3.80
2018-02-10T10:28:55.851Z,3.70
2018-02-10T10:31:23.352Z,3.80
2018-02-10T10:33:50.881Z,3.90
2018-02-10T10:36:18.479Z,3.90
2018-02-10T10:38:45.976Z,4.00
2018-02-10T10:41:13.462Z,4.20
2018-02-10T10:43:40.965Z,4.20
2018-02-10T10:46:08.470Z,4.20
2018-02-10T10:48:35.954Z,4.10
2018-02-10T10:51:03.570Z,4.30
2018-02-10T10:53:31.087Z,4.20
2018-02-10T10:55:58.580Z,4.30
2018-02-10T10:58:26.110Z,4.50
2018-02-10T11:00:53.620Z,4.50
2018-02-10T11:03:21.118Z,4.30
2018-02-10T11:05:57.189Z,4.40
2018-02-10T11:08:25.991Z,4.60
2018-02-10T11:10:53.619Z,4.60
2018-02-10T11:13:21.105Z,4.50
2018-02-10T11:15:48.585Z,4.50
2018-02-10T11:18:16.841Z,4.70
2018-02-10T11:20:44.327Z,4.70
2018-02-10T11:23:11.808Z,4.60
2018-02-10T11:25:39.307Z,4.60
2018-02-10T11:28:06.819Z,4.50
2018-02-10T11:30:34.305Z,4.50
2018-02-10T11:33:01.796Z,4.50
2018-02-10T11:35:30.071Z,4.30
2018-02-10T11:37:58.331Z,4.20
2018-02-10T11:40:25.823Z,4.20
2018-02-10T11:42:54.091Z,4.30
2018-02-10T11:45:22.350Z,4.20
2018-02-10T11:47:50.234Z,4.20
2018-02-10T11:50:18.512Z,4.50
2018-02-10T11:52:46.790Z,4.40
2018-02-10T11:55:15.047Z,4.30
2018-02-10T11:57:42.532Z,4.30
2018-02-10T12:00:10.802Z,4.40
2018-02-10T12:02:39.115Z,4.40
2018-02-10T12:05:06.634Z,4.40
2018-02-10T12:07:34.890Z,4.30
2018-02-10T12:10:02.384Z,4.20
2018-02-10T12:12:29.870Z,4.40
2018-02-10T12:14:57.448Z,4.50
2018-02-10T12:17:24.941Z,4.20
2018-02-10T12:19:53.217Z,4.50
2018-02-10T12:22:21.459Z,4.70
2018-02-10T12:24:48.971Z,4.70
2018-02-10T12:27:17.205Z,4.80
2018-02-10T12:29:45.507Z,4.80
2018-02-10T12:32:13.797Z,4.90
2018-02-10T12:34:42.089Z,4.90
2018-02-10T12:37:09.579Z,4.90
2018-02-10T12:39:37.078Z,4.70
2018-02-10T12:42:04.579Z,4.70
2018-02-10T12:44:32.066Z,4.60
2018-02-10T12:46:59.574Z,4.60
2018-02-10T12:49:32.102Z,4.50
2018-02-10T12:51:59.696Z,4.50
2018-02-10T12:54:27.998Z,4.20
2018-02-10T12:56:55.518Z,4.20
2018-02-10T12:59:23.022Z,4.20
2018-02-10T13:01:50.582Z,4.20
2018-02-10T13:04:18.062Z,4.10
2018-02-10T13:06:45.564Z,4.10
2018-02-10T13:09:13.806Z,3.90
2018-02-10T13:11:41.292Z,3.90
2018-02-10T13:14:09.617Z,3.80
2018-02-10T13:16:37.105Z,3.80
2018-02-10T13:19:04.595Z,3.90
2018-02-10T13:21:32.157Z,3.80
2018-02-10T13:24:00.395Z,3.70
2018-02-10T13:26:27.875Z,3.70
2018-02-10T13:28:55.383Z,3.80
2018-02-10T13:31:22.863Z,3.80
2018-02-10T13:33:50.341Z,3.70
2018-02-10T13:36:17.925Z,3.70
2018-02-10T13:38:46.175Z,3.70
2018-02-10T13:41:13.658Z,3.60
2018-02-10T13:43:41.924Z,3.80
2018-02-10T13:46:10.174Z,3.60
2018-02-10T13:48:39.606Z,3.60
2018-02-10T13:51:07.858Z,3.50
2018-02-10T13:53:35.370Z,3.50
2018-02-10T13:56:02.838Z,3.50
2018-02-10T13:58:30.326Z,3.40
2018-02-10T14:00:57.806Z,3.40
2018-02-10T14:03:25.850Z,3.30
2018-02-10T14:05:53.337Z,3.20
2018-02-10T14:08:22.337Z,3.30
2018-02-10T14:10:50.618Z,3.10
2018-02-10T14:13:18.954Z,3.10
2018-02-10T14:15:46.435Z,3.10
2018-02-10T14:18:14.013Z,3.10
2018-02-10T14:20:42.307Z,2.80
2018-02-10T14:23:09.789Z,2.80
2018-02-10T14:25:37.270Z,2.70
2018-02-10T14:28:04.769Z,2.80
2018-02-10T14:30:33.018Z,2.60
2018-02-10T14:33:00.497Z,2.50
2018-02-10T14:35:28.779Z,2.60
2018-02-10T14:37:57.027Z,2.60
2018-02-10T14:40:24.506Z,2.60
2018-02-10T14:42:52.000Z,2.50
2018-02-10T14:45:19.539Z,2.60
2018-02-10T14:47:47.787Z,2.50
2018-02-10T14:50:15.274Z,2.40
2018-02-10T14:52:43.514Z,2.50
2018-02-10T14:55:11.766Z,2.40
2018-02-10T14:57:39.382Z,2.40
2018-02-10T15:00:06.936Z,2.40
2018-02-10T15:02:35.178Z,2.50
2018-02-10T15:05:02.680Z,2.40
2018-02-10T15:07:30.923Z,2.50
2018-02-10T15:09:58.414Z,2.50
2018-02-10T15:12:26.661Z,2.50
2018-02-10T15:14:54.154Z,2.50
2018-02-10T15:17:21.629Z,2.40
2018-02-10T15:19:49.170Z,2.40
2018-02-10T15:22:16.653Z,2.40
2018-02-10T15:24:44.135Z,2.30
2018-02-10T15:27:11.629Z,2.30
2018-02-10T15:29:51.885Z,2.30
2018-02-10T15:32:31.951Z,2.30
2018-02-10T15:35:00.193Z,2.20
2018-02-10T15:37:27.720Z,2.20
2018-02-10T15:39:55.191Z,2.20
2018-02-10T15:42:22.679Z,2.20
2018-02-10T15:44:50.170Z,2.10
2018-02-10T15:47:17.714Z,2.00
2018-02-10T15:49:45.982Z,2.00
2018-02-10T15:52:13.462Z,2.00
2018-02-10T15:54:40.954Z,2.00
2018-02-10T15:57:08.434Z,2.00
2018-02-10T15:59:36.022Z,2.00
2018-02-10T16:02:04.278Z,1.90
2018-02-10T16:04:31.758Z,1.90
2018-02-10T16:07:00.011Z,1.90
2018-02-10T16:09:27.502Z,1.90
2018-02-10T16:11:56.010Z,1.80
2018-02-10T16:14:23.490Z,1.80
2018-02-10T16:16:50.990Z,1.80
2018-02-10T16:19:19.235Z,1.80
2018-02-10T16:21:46.714Z,1.80
2018-02-10T16:24:14.229Z,1.80
2018-02-10T16:26:41.837Z,1.70
2018-02-10T16:29:10.077Z,1.60
2018-02-10T16:31:37.567Z,1.60
2018-02-10T16:34:05.036Z,1.60
2018-02-10T16:36:33.315Z,1.50
2018-02-10T16:39:01.565Z,1.50
2018-02-10T16:41:32.764Z,1.50
2018-02-10T16:44:00.294Z,1.50
2018-02-10T16:46:28.541Z,1.40
2018-02-10T16:48:56.123Z,1.40
2018-02-10T16:51:24.430Z,1.50
2018-02-10T16:53:51.914Z,1.40
2018-02-10T16:56:19.418Z,1.50
2018-02-10T16:58:47.663Z,1.50
2018-02-10T17:01:15.254Z,1.40
2018-02-10T17:03:43.514Z,1.50
2018-02-10T17:06:11.754Z,1.50
2018-02-10T17:08:39.302Z,1.50
2018-02-10T17:11:07.517Z,1.50
2018-02-10T17:13:34.999Z,1.50
2018-02-10T17:16:03.263Z,1.50
2018-02-10T17:18:30.738Z,1.40
2018-02-10T17:21:05.002Z,1.40
2018-02-10T17:23:32.449Z,1.40
2018-02-10T17:25:59.928Z,1.40
2018-02-10T17:28:27.413Z,1.40
2018-02-10T17:30:54.891Z,1.40
2018-02-10T17:33:23.139Z,1.40
2018-02-10T17:35:52.223Z,1.30
2018-02-10T17:38:19.747Z,1.40
2018-02-10T17:40:47.227Z,1.40
2018-02-10T17:43:14.721Z,1.30
2018-02-10T17:45:43.011Z,1.30
2018-02-10T17:48:11.275Z,1.30
2018-02-10T17:50:38.779Z,1.30
2018-02-10T17:53:06.283Z,1.30
2018-02-10T17:55:33.761Z,1.30
2018-02-10T17:58:02.655Z,1.30
2018-02-10T18:00:30.893Z,1.30
2018-02-10T18:02:58.382Z,1.20
2018-02-10T18:05:26.646Z,1.20
2018-02-10T18:07:54.126Z,1.20
2018-02-10T18:10:22.368Z,1.30
2018-02-10T18:12:49.854Z,1.20
2018-02-10T18:15:18.102Z,1.30
2018-02-10T18:17:45.578Z,1.20
2018-02-10T18:20:13.070Z,1.20
2018-02-10T18:22:40.566Z,1.20
2018-02-10T18:25:08.142Z,1.20
2018-02-10T18:27:35.630Z,1.30
2018-02-10T18:30:03.932Z,1.20
2018-02-10T18:32:31.464Z,1.20
2018-02-10T18:34:59.753Z,1.30
2018-02-10T18:37:27.327Z,1.20
2018-02-10T18:39:54.993Z,1.30
2018-02-10T18:42:22.778Z,1.20
2018-02-10T18:44:50.572Z,1.20
2018-02-10T18:47:18.961Z,1.30
2018-02-10T18:49:49.784Z,1.20
2018-02-10T18:52:20.885Z,1.20
2018-02-10T18:54:48.851Z,1.30
2018-02-10T18:57:16.717Z,1.30
2018-02-10T18:59:44.248Z,1.30
2018-02-10T19:02:12.540Z,1.30
2018-02-10T19:04:41.141Z,1.30
2018-02-10T19:07:08.686Z,1.30
2018-02-10T19:09:36.285Z,1.30
2018-02-10T19:12:03.806Z,1.30
2018-02-10T19:14:31.404Z,1.30
2018-02-10T19:16:59.472Z,1.40
2018-02-10T19:19:27.130Z,1.50
2018-02-10T19:21:54.756Z,1.50
2018-02-10T19:24:22.424Z,1.50
2018-02-10T19:26:50.065Z,1.40
2018-02-10T19:29:18.331Z,1.40
2018-02-10T19:31:46.588Z,1.40
2018-02-10T19:34:14.082Z,1.30
2018-02-10T19:36:42.350Z,1.30
2018-02-10T19:39:10.607Z,1.30
2018-02-10T19:41:38.198Z,1.20
2018-02-10T19:44:06.445Z,1.30
2018-02-10T19:46:33.933Z,1.20
2018-02-10T19:49:02.183Z,1.20
2018-02-10T19:51:29.759Z,1.20
2018-02-10T19:53:58.051Z,1.20
2018-02-10T19:56:26.311Z,1.20
2018-02-10T19:58:54.558Z,1.20
2018-02-10T20:01:22.042Z,1.20
2018-02-10T20:03:50.303Z,1.20
2018-02-10T20:06:17.774Z,1.20
2018-02-10T20:08:45.282Z,1.20
2018-02-10T20:11:12.828Z,1.20
2018-02-10T20:13:40.362Z,1.20
2018-02-10T20:16:07.848Z,1.20
2018-02-10T20:18:35.402Z,1.20
2018-02-10T20:21:02.889Z,1.20
2018-02-10T20:23:30.430Z,1.20
2018-02-10T20:25:58.061Z,1.30
2018-02-10T20:28:26.330Z,1.30
2018-02-10T20:30:54.577Z,1.30
2018-02-10T20:33:22.073Z,1.20
2018-02-10T20:35:50.336Z,1.20
2018-02-10T20:38:18.597Z,1.20
2018-02-10T20:40:46.093Z,1.20
2018-02-10T20:43:13.583Z,1.20
2018-02-10T20:45:41.099Z,1.10
2018-02-10T20:48:09.381Z,1.10
2018-02-10T20:50:37.631Z,1.10
2018-02-10T20:53:05.130Z,1.10
2018-02-10T20:55:32.626Z,1.10
2018-02-10T20:58:00.127Z,1.10
2018-02-10T21:00:28.399Z,1.00
2018-02-10T21:02:56.654Z,1.00
2018-02-10T21:05:24.920Z,1.00
2018-02-10T21:07:52.402Z,1.00
2018-02-10T21:10:19.902Z,0.90
2018-02-10T21:12:47.374Z,0.90
2018-02-10T21:15:14.861Z,1.00
2018-02-10T21:17:42.346Z,0.90
2018-02-10T21:20:10.592Z,0.90
2018-02-10T21:22:38.070Z,0.80
2018-02-10T21:25:05.570Z,0.80
2018-02-10T21:27:33.056Z,0.80
2018-02-10T21:30:00.543Z,0.80
2018-02-10T21:32:28.125Z,0.80
2018-02-10T21:34:56.421Z,0.90
2018-02-10T21:37:23.958Z,0.80
2018-02-10T21:39:52.215Z,0.90
2018-02-10T21:42:20.509Z,0.90
2018-02-10T21:44:48.771Z,0.90
2018-02-10T21:47:17.043Z,1.00
2018-02-10T21:49:44.521Z,0.90
2018-02-10T21:52:12.073Z,1.00
2018-02-10T21:54:40.337Z,1.00
2018-02-10T21:57:09.327Z,1.00
2018-02-10T21:59:36.826Z,1.00
2018-02-10T22:02:04.326Z,1.00
2018-02-10T22:04:31.815Z,0.90
2018-02-10T22:07:00.457Z,0.90
2018-02-10T22:09:27.956Z,0.90
2018-02-10T22:11:56.230Z,0.90
2018-02-10T22:14:24.518Z,0.90
2018-02-10T22:16:52.841Z,0.90
2018-02-10T22:19:20.314Z,0.90
2018-02-10T22:21:47.888Z,0.90
2018-02-10T22:24:16.884Z,0.90
2018-02-10T22:26:44.363Z,0.90
2018-02-10T22:29:12.619Z,0.90
2018-02-10T22:31:40.891Z,0.80
2018-02-10T22:34:08.365Z,0.80
2018-02-10T22:36:36.609Z,0.80
2018-02-10T22:39:04.096Z,0.80
2018-02-10T22:41:32.553Z,0.80
2018-02-10T22:44:00.037Z,0.80
2018-02-10T22:46:27.526Z,0.70
2018-02-10T22:48:55.078Z,0.70
2018-02-10T22:51:22.555Z,0.80
2018-02-10T22:53:50.106Z,0.80
2018-02-10T22:56:18.362Z,0.70
2018-02-10T22:58:46.606Z,0.80
2018-02-10T23:01:16.542Z,0.80
2018-02-10T23:03:44.112Z,0.80
2018-02-10T23:06:12.354Z,0.80
2018-02-10T23:08:39.860Z,0.80
2018-02-10T23:11:07.342Z,0.90
2018-02-10T23:13:34.854Z,0.90
2018-02-10T23:16:03.126Z,1.00
2018-02-10T23:18:30.610Z,0.90
2018-02-10T23:20:58.085Z,0.90
2018-02-10T23:23:25.851Z,1.00
2018-02-10T23:25:54.278Z,1.00
2018-02-10T23:28:22.635Z,1.00
2018-02-10T23:30:52.008Z,1.00
2018-02-10T23:33:19.613Z,1.00
2018-02-10T23:35:47.352Z,1.00
2018-02-10T23:38:15.020Z,1.00
2018-02-10T23:40:42.657Z,1.00
2018-02-10T23:43:11.339Z,1.00
2018-02-10T23:45:39.041Z,1.00
2018-02-10T23:48:06.873Z,1.00
2018-02-10T23:50:34.501Z,1.00
2018-02-10T23:53:04.553Z,1.00
2018-02-10T23:55:32.219Z,1.00
2018-02-10T23:57:59.911Z,1.00
